Time;durP1;ratioP1;P1;durP2;ratioP2;P2;SDS_P1;SDS_P2;PMS_P1;PMS_P2;Temp;Humidity;BMP_temperature;BMP_pressure;BME280_temperature;BME280_humidity;BME280_pressure;Samples;Min_cycle;Max_cycle;Signal;HPM_P1;HPM_P2
2020/12/27 00:01:41;;;;;;;32.80;17.13;;;1.00;93.10;;;;;;5055992;28;20493;-66
2020/12/27 00:04:07;;;;;;;29.48;16.83;;;1.00;92.90;;;;;;5055920;28;20021;-66
2020/12/27 00:06:33;;;;;;;31.52;16.58;;;0.90;92.90;;;;;;5056031;28;20482;-66
2020/12/27 00:08:59;;;;;;;26.30;15.32;;;0.90;92.90;;;;;;5054162;28;20025;-66
2020/12/27 00:11:25;;;;;;;23.08;13.30;;;0.90;92.90;;;;;;5055096;28;20029;-66
2020/12/27 00:13:51;;;;;;;23.52;12.88;;;0.80;92.90;;;;;;5041897;28;20070;-66
2020/12/27 00:16:25;;;;;;;23.90;12.48;;;0.80;92.90;;;;;;5055242;28;20025;-66
2020/12/27 00:18:51;;;;;;;22.93;12.80;;;0.80;93.00;;;;;;5055870;28;20032;-65
2020/12/27 00:21:18;;;;;;;21.98;11.68;;;0.90;93.20;;;;;;5041532;28;20033;-65
2020/12/27 00:23:44;;;;;;;20.80;11.15;;;0.90;93.20;;;;;;5051953;28;20032;-65
2020/12/27 00:26:17;;;;;;;24.13;12.60;;;0.90;93.30;;;;;;5055781;28;20021;-66
2020/12/27 00:28:43;;;;;;;24.85;13.25;;;0.90;93.20;;;;;;5055513;28;20083;-66
2020/12/27 00:31:09;;;;;;;25.92;13.30;;;0.80;93.00;;;;;;5055237;28;20025;-66
2020/12/27 00:33:35;;;;;;;23.95;13.52;;;0.80;93.00;;;;;;5055721;28;20025;-66
2020/12/27 00:36:01;;;;;;;28.52;14.25;;;0.80;92.90;;;;;;5055183;28;20029;-66
2020/12/27 00:38:27;;;;;;;26.23;14.20;;;0.80;93.10;;;;;;5055409;28;20356;-66
2020/12/27 00:40:53;;;;;;;23.30;11.90;;;0.80;93.20;;;;;;5055117;28;20231;-66
2020/12/27 00:43:19;;;;;;;26.20;13.38;;;0.80;93.20;;;;;;5053750;28;20494;-66
2020/12/27 00:45:45;;;;;;;20.25;11.60;;;0.80;93.20;;;;;;5055468;28;20464;-66
2020/12/27 00:48:11;;;;;;;22.55;11.48;;;0.80;93.20;;;;;;5055168;28;20044;-67
2020/12/27 00:50:37;;;;;;;21.75;11.60;;;0.80;93.10;;;;;;5055128;28;20451;-66
2020/12/27 00:53:02;;;;;;;23.65;11.25;;;0.70;93.00;;;;;;5054968;28;20025;-66
2020/12/27 00:55:28;;;;;;;22.70;12.02;;;0.70;93.10;;;;;;5055577;28;20036;-65
2020/12/27 00:57:54;;;;;;;22.80;11.57;;;0.70;93.10;;;;;;5055012;28;20108;-65
2020/12/27 01:00:20;;;;;;;21.23;10.85;;;0.70;93.10;;;;;;5055074;28;20052;-65
2020/12/27 01:02:45;;;;;;;23.30;11.60;;;0.70;93.10;;;;;;5054949;28;20091;-65
2020/12/27 01:05:11;;;;;;;19.02;10.38;;;0.70;93.10;;;;;;5054394;28;20021;-65
2020/12/27 01:07:37;;;;;;;20.35;11.23;;;0.60;93.00;;;;;;5055425;28;20040;-65
2020/12/27 01:10:03;;;;;;;20.88;11.15;;;0.60;93.00;;;;;;5054697;28;20029;-66
2020/12/27 01:12:29;;;;;;;21.67;10.82;;;0.50;93.00;;;;;;5054758;28;20414;-65
2020/12/27 01:14:55;;;;;;;24.90;11.18;;;0.50;93.10;;;;;;5054646;28;20021;-66
2020/12/27 01:17:23;;;;;;;21.60;11.27;;;0.60;93.10;;;;;;5054626;28;20037;-65
2020/12/27 01:19:49;;;;;;;23.77;10.73;;;0.50;93.10;;;;;;5054541;28;20083;-65
2020/12/27 01:22:15;;;;;;;24.58;10.88;;;0.50;93.20;;;;;;5040355;28;20037;-65
2020/12/27 01:24:40;;;;;;;23.08;11.98;;;0.50;93.30;;;;;;5054934;28;20028;-65
2020/12/27 01:27:06;;;;;;;21.23;11.35;;;0.50;93.20;;;;;;5053322;28;20033;-65
2020/12/27 01:29:32;;;;;;;23.58;11.60;;;0.50;93.20;;;;;;5051332;28;20594;-67
2020/12/27 01:32:01;;;;;;;21.92;10.63;;;0.50;93.10;;;;;;5042922;28;20033;-65
2020/12/27 01:34:30;;;;;;;20.42;11.77;;;0.50;93.10;;;;;;5047826;28;20108;-67
2020/12/27 01:36:56;;;;;;;23.35;13.02;;;0.50;93.30;;;;;;5048405;28;20138;-67
2020/12/27 01:39:22;;;;;;;24.35;11.80;;;0.50;93.20;;;;;;5051081;28;20074;-67
2020/12/27 01:41:50;;;;;;;24.58;12.05;;;0.50;93.20;;;;;;5060869;28;20144;-67
2020/12/27 01:44:15;;;;;;;22.67;11.85;;;0.40;93.20;;;;;;5045126;28;20379;-67
2020/12/27 01:46:43;;;;;;;19.40;11.95;;;0.40;93.10;;;;;;5052829;28;20025;-68
2020/12/27 01:49:10;;;;;;;21.75;12.75;;;0.30;93.00;;;;;;5054320;28;20025;-67
2020/12/27 01:51:37;;;;;;;24.67;12.80;;;0.30;93.20;;;;;;5053693;28;20467;-68
2020/12/27 01:54:04;;;;;;;24.33;12.13;;;0.40;93.40;;;;;;5054967;28;20024;-67
2020/12/27 01:56:43;;;;;;;22.27;12.43;;;0.40;93.40;;;;;;5054523;28;20017;-69
2020/12/27 01:59:13;;;;;;;21.75;11.88;;;0.40;93.40;;;;;;5051618;28;20513;-68
2020/12/27 02:01:40;;;;;;;25.48;12.20;;;0.40;93.30;;;;;;5051524;28;20487;-69
2020/12/27 02:04:06;;;;;;;20.48;11.50;;;0.40;93.30;;;;;;5051677;28;20025;-69
2020/12/27 02:06:32;;;;;;;18.83;11.65;;;0.30;93.30;;;;;;5039049;28;20468;-67
2020/12/27 02:08:59;;;;;;;23.35;11.80;;;0.30;93.30;;;;;;5053052;28;20482;-72
2020/12/27 02:11:26;;;;;;;23.20;12.20;;;0.30;93.20;;;;;;5052918;28;20059;-68
2020/12/27 02:13:53;;;;;;;25.45;12.40;;;0.30;93.20;;;;;;5053634;28;20039;-68
2020/12/27 02:16:20;;;;;;;25.95;12.60;;;0.30;93.20;;;;;;5040669;28;20026;-67
2020/12/27 02:18:50;;;;;;;24.42;11.90;;;0.30;93.30;;;;;;5051548;28;20470;-67
2020/12/27 02:21:17;;;;;;;23.45;11.50;;;0.30;93.30;;;;;;5040275;28;20033;-67
2020/12/27 02:23:43;;;;;;;25.50;11.80;;;0.30;93.30;;;;;;5049999;28;20116;-67
2020/12/27 02:26:09;;;;;;;20.52;11.05;;;0.30;93.40;;;;;;5053456;28;20523;-67
2020/12/27 02:28:35;;;;;;;19.85;10.30;;;0.30;93.30;;;;;;5051781;28;20045;-67
2020/12/27 02:31:01;;;;;;;21.58;11.35;;;0.30;93.30;;;;;;5052992;28;20382;-67
2020/12/27 02:33:27;;;;;;;21.27;11.45;;;0.30;93.30;;;;;;5052303;28;20029;-67
2020/12/27 02:35:53;;;;;;;25.70;12.15;;;0.30;93.30;;;;;;5051881;28;20455;-67
2020/12/27 02:38:19;;;;;;;21.67;11.88;;;0.30;93.30;;;;;;5053016;28;20021;-67
2020/12/27 02:40:44;;;;;;;23.48;12.23;;;0.30;93.40;;;;;;5051768;28;20554;-68
2020/12/27 02:43:17;;;;;;;22.92;11.82;;;0.30;93.30;;;;;;5052620;28;20044;-67
2020/12/27 02:45:44;;;;;;;24.73;11.80;;;0.30;93.30;;;;;;5053450;28;20063;-66
2020/12/27 02:48:10;;;;;;;20.63;10.90;;;0.30;93.30;;;;;;5051906;28;20059;-67
2020/12/27 02:50:36;;;;;;;21.42;10.85;;;0.30;93.20;;;;;;5053191;28;20064;-67
2020/12/27 02:53:03;;;;;;;21.90;11.50;;;0.30;93.40;;;;;;5052943;28;20375;-67
2020/12/27 02:55:30;;;;;;;23.42;12.32;;;0.30;93.30;;;;;;5051765;28;20108;-68
2020/12/27 02:57:55;;;;;;;24.92;12.35;;;0.30;93.30;;;;;;5052925;28;20059;-67
2020/12/27 03:00:21;;;;;;;25.05;13.13;;;0.30;93.30;;;;;;5053418;28;20407;-66
2020/12/27 03:02:47;;;;;;;23.77;12.73;;;0.20;93.20;;;;;;5051880;28;20044;-66
2020/12/27 03:05:13;;;;;;;24.95;12.13;;;0.20;93.10;;;;;;5052613;28;20025;-67
2020/12/27 03:07:39;;;;;;;22.67;11.88;;;0.20;93.20;;;;;;5051681;28;20460;-67
2020/12/27 03:10:05;;;;;;;22.70;12.15;;;0.20;93.20;;;;;;5052752;28;20096;-67
2020/12/27 03:12:30;;;;;;;25.88;13.50;;;0.20;93.20;;;;;;5052885;28;20448;-67
2020/12/27 03:14:56;;;;;;;25.08;13.13;;;0.20;93.10;;;;;;5052650;28;20021;-67
2020/12/27 03:17:22;;;;;;;26.00;13.50;;;0.10;93.10;;;;;;5052524;28;20029;-67
2020/12/27 03:19:47;;;;;;;25.67;13.27;;;0.10;93.10;;;;;;5051524;28;20032;-67
2020/12/27 03:22:13;;;;;;;32.63;16.60;;;0.10;93.10;;;;;;5052433;28;20029;-67
2020/12/27 03:24:39;;;;;;;34.65;17.10;;;0.10;93.30;;;;;;5052930;28;20082;-67
2020/12/27 03:27:05;;;;;;;34.25;17.90;;;0.10;93.30;;;;;;5052202;28;20037;-67
2020/12/27 03:29:31;;;;;;;30.08;16.10;;;0.10;93.20;;;;;;5052873;28;20049;-67
2020/12/27 03:31:56;;;;;;;28.20;14.63;;;0.10;93.20;;;;;;5052857;28;20025;-67
2020/12/27 03:34:22;;;;;;;26.17;14.35;;;0.10;93.30;;;;;;5052334;28;20070;-67
2020/12/27 03:36:48;;;;;;;27.50;13.52;;;0.00;93.10;;;;;;5051348;28;20391;-67
2020/12/27 03:39:14;;;;;;;28.85;14.02;;;0.00;93.10;;;;;;5052093;28;20021;-67
2020/12/27 03:41:40;;;;;;;29.10;12.25;;;0.00;93.30;;;;;;5052531;28;20082;-67
2020/12/27 03:44:06;;;;;;;22.83;12.88;;;0.00;93.40;;;;;;5052665;28;20379;-67
2020/12/27 03:46:32;;;;;;;26.88;12.23;;;0.00;93.40;;;;;;5052254;28;20025;-67
2020/12/27 03:48:58;;;;;;;26.85;13.40;;;0.00;93.40;;;;;;5031416;28;20056;-68
2020/12/27 03:51:24;;;;;;;28.67;13.43;;;0.10;93.50;;;;;;5052809;28;20096;-66
2020/12/27 03:53:50;;;;;;;32.03;14.20;;;0.10;93.50;;;;;;5056282;28;20045;-66
2020/12/27 03:56:16;;;;;;;32.33;14.50;;;0.10;93.50;;;;;;5055904;28;20431;-66
2020/12/27 03:58:41;;;;;;;36.55;17.52;;;0.10;93.40;;;;;;5056473;28;20031;-66
2020/12/27 04:01:07;;;;;;;37.38;18.73;;;0.10;93.40;;;;;;5055858;28;20045;-66
2020/12/27 04:03:33;;;;;;;48.38;21.98;;;0.10;93.40;;;;;;5040813;28;20055;-67
2020/12/27 04:05:59;;;;;;;58.03;25.90;;;0.10;93.40;;;;;;5055998;28;20025;-66
2020/12/27 04:08:24;;;;;;;74.93;33.00;;;0.00;93.30;;;;;;5054305;28;20433;-66
2020/12/27 04:10:50;;;;;;;70.85;29.58;;;0.00;93.30;;;;;;5056002;28;20075;-66
2020/12/27 04:13:16;;;;;;;59.80;24.85;;;0.00;93.40;;;;;;5054412;28;20029;-67
2020/12/27 04:15:41;;;;;;;47.05;21.92;;;0.00;93.30;;;;;;5055701;28;20035;-67
2020/12/27 04:18:07;;;;;;;43.53;20.17;;;0.00;93.30;;;;;;5055955;28;20035;-67
2020/12/27 04:20:33;;;;;;;40.85;18.55;;;0.00;93.30;;;;;;5049945;28;20033;-66
2020/12/27 04:22:59;;;;;;;42.70;18.75;;;0.00;93.40;;;;;;5047380;28;20025;-67
2020/12/27 04:25:25;;;;;;;43.72;18.77;;;0.00;93.40;;;;;;5051882;28;20026;-66
2020/12/27 04:27:50;;;;;;;46.78;20.60;;;0.00;93.50;;;;;;5045768;28;20041;-66
2020/12/27 04:30:16;;;;;;;54.40;23.70;;;0.00;93.40;;;;;;5055696;28;20073;-66
2020/12/27 04:32:42;;;;;;;64.63;28.33;;;0.00;93.40;;;;;;5055384;28;20033;-67
2020/12/27 04:35:08;;;;;;;91.43;35.70;;;-0.10;93.30;;;;;;5043525;28;20118;-67
2020/12/27 04:37:34;;;;;;;79.07;31.25;;;-0.10;93.30;;;;;;5037276;28;20208;-66
2020/12/27 04:39:59;;;;;;;81.40;33.75;;;-0.10;93.30;;;;;;5053950;28;20463;-66
2020/12/27 04:42:25;;;;;;;83.72;34.42;;;-0.10;93.30;;;;;;5055558;28;20510;-66
2020/12/27 04:44:54;;;;;;;75.18;33.35;;;-0.10;93.30;;;;;;5055359;28;20058;-66
2020/12/27 04:47:25;;;;;;;67.97;30.02;;;-0.10;93.20;;;;;;5054971;28;20025;-65
2020/12/27 04:49:51;;;;;;;53.53;23.70;;;-0.10;93.30;;;;;;5055383;28;20024;-66
2020/12/27 04:52:21;;;;;;;55.05;25.13;;;-0.20;93.20;;;;;;5053743;28;20055;-65
2020/12/27 04:54:48;;;;;;;57.53;26.73;;;-0.20;93.20;;;;;;5053801;28;20442;-66
2020/12/27 04:57:16;;;;;;;70.95;30.15;;;-0.20;93.30;;;;;;5055177;28;20025;-66
2020/12/27 04:59:46;;;;;;;68.70;30.85;;;-0.20;93.20;;;;;;5054781;28;20075;-66
2020/12/27 05:02:12;;;;;;;58.58;27.90;;;-0.20;93.30;;;;;;5054741;28;20511;-65
2020/12/27 05:04:38;;;;;;;59.33;27.15;;;-0.20;93.40;;;;;;5054587;28;20037;-66
2020/12/27 05:07:04;;;;;;;58.42;26.30;;;-0.20;93.40;;;;;;5053526;28;20032;-66
2020/12/27 05:09:30;;;;;;;64.97;31.75;;;-0.20;93.40;;;;;;5054833;28;20029;-66
2020/12/27 05:11:56;;;;;;;74.38;33.67;;;-0.20;93.40;;;;;;5053308;28;20402;-67
2020/12/27 05:14:23;;;;;;;76.70;36.20;;;-0.20;93.40;;;;;;5053405;28;20028;-67
2020/12/27 05:16:58;;;;;;;69.18;33.35;;;-0.20;93.30;;;;;;5054423;28;20104;-67
2020/12/27 05:19:24;;;;;;;68.07;32.38;;;-0.20;93.20;;;;;;5053126;28;20025;-67
2020/12/27 05:21:50;;;;;;;83.07;35.00;;;-0.30;93.20;;;;;;5054395;28;20029;-67
2020/12/27 05:24:18;;;;;;;79.35;34.67;;;-0.20;93.40;;;;;;5054702;28;20048;-66
2020/12/27 05:26:46;;;;;;;77.03;35.28;;;-0.30;93.30;;;;;;5054525;28;20035;-66
2020/12/27 05:29:32;;;;;;;84.15;39.58;;;-0.30;93.30;;;;;;5053918;28;20114;-66
2020/12/27 05:31:59;;;;;;;96.72;40.70;;;-0.30;93.40;;;;;;5054198;28;20471;-66
2020/12/27 05:34:26;;;;;;;97.35;41.80;;;-0.30;93.30;;;;;;5052760;28;20108;-66
2020/12/27 05:36:55;;;;;;;74.20;36.15;;;-0.30;93.20;;;;;;5054166;28;20036;-65
2020/12/27 05:39:20;;;;;;;89.45;40.92;;;-0.30;93.30;;;;;;5053698;28;20025;-67
2020/12/27 05:41:46;;;;;;;115.25;57.20;;;-0.30;93.20;;;;;;5053856;28;20099;-66
2020/12/27 05:44:15;;;;;;;114.65;51.38;;;-0.40;93.00;;;;;;5052372;28;20051;-67
2020/12/27 05:46:44;;;;;;;107.80;45.20;;;-0.50;92.90;;;;;;5053894;28;20032;-67
2020/12/27 05:49:11;;;;;;;93.55;42.03;;;-0.50;93.10;;;;;;5052477;28;20025;-67
2020/12/27 05:51:49;;;;;;;88.22;38.33;;;-0.50;93.30;;;;;;5053758;28;20053;-67
2020/12/27 05:54:31;;;;;;;83.47;36.00;;;-0.40;93.60;;;;;;5054122;28;20039;-67
2020/12/27 05:56:59;;;;;;;68.55;33.70;;;-0.40;93.60;;;;;;5041543;28;20104;-68
2020/12/27 05:59:34;;;;;;;64.80;32.50;;;-0.20;94.30;;;;;;5053933;28;20025;-68
2020/12/27 06:02:01;;;;;;;77.13;33.60;;;0.00;94.80;;;;;;5052576;28;20542;-67
2020/12/27 06:04:38;;;;;;;84.53;34.15;;;0.40;95.30;;;;;;5053837;28;20429;-66
2020/12/27 06:07:06;;;;;;;85.70;38.75;;;0.80;95.60;;;;;;5040733;28;20027;-67
2020/12/27 06:10:02;;;;;;;84.90;36.28;;;1.10;95.40;;;;;;5053740;28;20477;-67
2020/12/27 06:12:46;;;;;;;66.18;32.22;;;1.50;95.00;;;;;;5043008;28;20037;-67
2020/12/27 06:15:36;;;;;;;56.38;27.58;;;1.90;94.90;;;;;;5051027;28;20057;-66
2020/12/27 06:18:10;;;;;;;62.30;29.35;;;2.30;94.70;;;;;;5053624;28;20064;-66
2020/12/27 06:20:41;;;;;;;56.88;27.50;;;2.60;94.80;;;;;;5053761;28;20021;-67
2020/12/27 06:23:07;;;;;;;44.83;23.23;;;3.10;95.50;;;;;;5040593;28;20061;-67
2020/12/27 06:25:34;;;;;;;40.83;22.55;;;3.70;95.80;;;;;;5050984;28;20025;-68
2020/12/27 06:28:01;;;;;;;40.78;22.80;;;4.10;95.60;;;;;;5051827;28;20049;-68
2020/12/27 06:30:34;;;;;;;35.70;21.38;;;4.60;95.00;;;;;;5049024;28;20076;-67
2020/12/27 06:33:12;;;;;;;40.63;22.88;;;5.00;94.90;;;;;;5039793;28;20378;-67
2020/12/27 06:35:39;;;;;;;43.85;24.92;;;5.50;94.50;;;;;;5051982;28;20052;-69
2020/12/27 06:38:34;;;;;;;57.75;33.13;;;5.80;94.10;;;;;;5039664;28;20502;-67
2020/12/27 06:41:08;;;;;;;51.35;31.40;;;6.30;93.70;;;;;;5049802;28;20132;-67
2020/12/27 06:43:45;;;;;;;58.75;34.53;;;6.60;93.20;;;;;;5053235;28;20036;-67
2020/12/27 06:46:22;;;;;;;62.63;39.20;;;6.90;92.80;;;;;;5040206;28;20403;-68
2020/12/27 06:48:47;;;;;;;57.78;36.30;;;7.20;92.30;;;;;;5062057;28;20079;-69
2020/12/27 06:51:41;;;;;;;52.15;31.48;;;7.40;91.40;;;;;;5046513;28;20471;-80
2020/12/27 06:54:07;;;;;;;29.45;18.48;;;7.60;90.70;;;;;;5044172;28;20025;-70
2020/12/27 06:56:53;;;;;;;35.50;20.95;;;7.80;90.30;;;;;;5050851;28;20025;-69
2020/12/27 06:59:33;;;;;;;35.03;20.48;;;7.90;90.30;;;;;;5050809;28;20059;-68
2020/12/27 07:02:07;;;;;;;34.55;18.58;;;8.30;90.70;;;;;;5047520;28;20029;-69
2020/12/27 07:04:37;;;;;;;29.85;17.00;;;8.60;90.50;;;;;;5062723;28;20029;-72
2020/12/27 07:07:03;;;;;;;27.77;16.55;;;8.90;90.30;;;;;;5038819;28;20052;-68
2020/12/27 07:09:32;;;;;;;26.55;15.48;;;9.30;90.30;;;;;;5049723;28;20030;-68
2020/12/27 07:12:18;;;;;;;23.63;14.60;;;9.70;90.00;;;;;;5046743;28;20075;-69
2020/12/27 07:14:54;;;;;;;25.67;14.50;;;10.10;89.10;;;;;;5037316;28;20037;-70
2020/12/27 07:17:23;;;;;;;27.83;15.43;;;10.70;89.30;;;;;;5035459;28;20037;-69
2020/12/27 07:19:50;;;;;;;29.88;17.92;;;11.10;87.90;;;;;;5041561;28;20690;-69
2020/12/27 07:22:21;;;;;;;32.78;20.50;;;11.50;86.30;;;;;;5039417;28;20087;-69
2020/12/27 07:24:48;;;;;;;34.05;21.15;;;12.00;85.20;;;;;;5034040;28;20022;-70
2020/12/27 07:27:18;;;;;;;30.95;21.23;;;12.30;84.40;;;;;;5039085;28;20029;-70
2020/12/27 07:29:58;;;;;;;31.52;21.67;;;12.50;82.10;;;;;;5053128;28;20140;-70
2020/12/27 07:32:24;;;;;;;28.77;20.63;;;12.70;81.30;;;;;;5048987;28;20033;-68
2020/12/27 07:34:55;;;;;;;26.73;19.10;;;12.90;80.30;;;;;;5045365;28;20029;-75
2020/12/27 07:37:28;;;;;;;26.48;17.92;;;13.30;79.40;;;;;;5046252;28;20021;-76
2020/12/27 07:39:58;;;;;;;27.50;17.85;;;13.60;78.20;;;;;;5035734;28;20471;-69
2020/12/27 07:42:29;;;;;;;29.23;19.15;;;13.70;77.60;;;;;;5040201;28;20062;-68
2020/12/27 07:44:57;;;;;;;31.60;19.90;;;14.00;76.30;;;;;;5044975;28;20131;-70
2020/12/27 07:47:26;;;;;;;31.40;19.80;;;14.20;74.80;;;;;;5050388;28;20052;-69
2020/12/27 07:50:07;;;;;;;36.25;22.80;;;14.40;74.20;;;;;;5043983;28;20383;-70
2020/12/27 07:52:55;;;;;;;38.65;22.45;;;14.50;73.10;;;;;;5043942;28;20493;-69
2020/12/27 07:56:05;;;;;;;36.92;22.35;;;14.70;72.00;;;;;;5040526;28;20083;-69
2020/12/27 07:58:31;;;;;;;40.30;24.80;;;14.80;71.20;;;;;;5032785;28;20064;-69
2020/12/27 08:01:00;;;;;;;45.17;25.92;;;15.10;70.70;;;;;;5046356;28;20077;-77
2020/12/27 08:03:26;;;;;;;48.10;25.50;;;15.30;70.40;;;;;;5042881;28;20467;-70
2020/12/27 08:05:59;;;;;;;44.33;24.67;;;15.50;68.90;;;;;;5035987;28;20022;-70
2020/12/27 08:08:38;;;;;;;38.20;24.23;;;15.70;68.20;;;;;;5037786;28;20025;-70
2020/12/27 08:11:03;;;;;;;39.13;22.30;;;15.80;66.80;;;;;;5051383;28;20461;-71
2020/12/27 08:13:30;;;;;;;32.05;20.85;;;16.00;66.50;;;;;;5046443;28;20132;-70
2020/12/27 08:15:55;;;;;;;35.78;21.20;;;16.10;65.60;;;;;;5045138;28;20083;-73
2020/12/27 08:18:24;;;;;;;37.67;22.42;;;16.20;64.40;;;;;;5050458;28;20029;-75
2020/12/27 08:20:58;;;;;;;35.85;22.05;;;16.30;63.80;;;;;;5048384;28;20089;-72
2020/12/27 08:23:26;;;;;;;37.03;21.15;;;16.20;62.50;;;;;;5054451;28;20040;-70
2020/12/27 08:25:57;;;;;;;30.38;18.65;;;16.30;62.90;;;;;;5048102;28;20107;-72
2020/12/27 08:28:23;;;;;;;30.90;18.92;;;16.50;63.30;;;;;;5039040;28;20488;-69
2020/12/27 08:30:49;;;;;;;32.53;18.98;;;16.70;61.90;;;;;;5041582;28;20116;-68
2020/12/27 08:33:17;;;;;;;34.25;21.70;;;16.70;60.80;;;;;;5050937;28;20463;-71
2020/12/27 08:35:45;;;;;;;38.08;22.58;;;16.90;60.70;;;;;;5041000;28;20026;-69
2020/12/27 08:38:40;;;;;;;38.58;22.05;;;16.90;58.20;;;;;;5054042;28;20024;-69
2020/12/27 08:41:10;;;;;;;35.65;20.30;;;16.50;58.10;;;;;;5041516;28;20098;-69
2020/12/27 08:43:56;;;;;;;34.17;18.80;;;16.50;59.60;;;;;;5039180;28;20037;-67
2020/12/27 08:46:29;;;;;;;25.60;17.58;;;16.60;58.70;;;;;;5043487;28;20032;-73
2020/12/27 08:49:18;;;;;;;24.55;16.52;;;16.60;58.10;;;;;;5040696;28;20032;-68
2020/12/27 08:51:50;;;;;;;22.67;16.40;;;16.80;57.60;;;;;;5037655;28;20021;-68
2020/12/27 08:54:18;;;;;;;23.80;16.27;;;16.80;57.20;;;;;;5036214;28;20049;-70
2020/12/27 08:56:44;;;;;;;20.70;14.23;;;17.00;57.00;;;;;;5043939;28;20041;-68
2020/12/27 08:59:14;;;;;;;24.02;14.05;;;17.10;55.30;;;;;;5041306;28;20025;-69
2020/12/27 09:01:40;;;;;;;22.02;14.23;;;17.00;54.90;;;;;;5053584;28;20029;-69
2020/12/27 09:04:16;;;;;;;21.35;14.57;;;16.70;54.00;;;;;;5055686;28;20080;-70
2020/12/27 09:06:41;;;;;;;21.08;13.60;;;16.50;54.20;;;;;;5050528;28;20127;-70
2020/12/27 09:09:08;;;;;;;23.20;14.93;;;16.50;54.20;;;;;;5047627;28;20033;-69
2020/12/27 09:11:46;;;;;;;23.95;14.88;;;16.40;54.40;;;;;;5049497;28;20021;-68
2020/12/27 09:14:34;;;;;;;18.75;12.15;;;16.70;53.70;;;;;;5037759;28;20395;-70
2020/12/27 09:17:05;;;;;;;21.25;13.02;;;16.70;52.90;;;;;;5043420;28;20023;-71
2020/12/27 09:19:34;;;;;;;19.25;12.98;;;16.50;52.20;;;;;;5033285;28;20024;-73
2020/12/27 09:22:05;;;;;;;19.73;12.98;;;16.40;51.90;;;;;;5045150;28;20098;-71
2020/12/27 09:24:31;;;;;;;25.52;14.98;;;16.30;51.00;;;;;;5042293;28;20026;-70
2020/12/27 09:27:07;;;;;;;25.27;16.45;;;16.30;51.80;;;;;;5045445;28;20113;-70
2020/12/27 09:29:33;;;;;;;21.67;15.35;;;16.30;51.60;;;;;;5042854;28;20483;-71
2020/12/27 09:32:13;;;;;;;26.55;15.50;;;16.30;51.40;;;;;;5056528;28;20086;-70
2020/12/27 09:34:40;;;;;;;21.70;13.77;;;16.30;51.50;;;;;;5040421;28;20047;-71
2020/12/27 09:37:16;;;;;;;21.95;14.70;;;16.30;51.10;;;;;;5036178;28;20030;-72
2020/12/27 09:39:45;;;;;;;21.25;14.00;;;16.30;51.20;;;;;;5039942;28;20464;-70
2020/12/27 09:42:21;;;;;;;25.55;14.93;;;16.10;50.40;;;;;;5032180;28;20106;-70
2020/12/27 09:44:48;;;;;;;23.48;14.35;;;15.90;50.40;;;;;;5036226;28;20163;-70
2020/12/27 09:47:27;;;;;;;18.63;13.23;;;15.50;50.00;;;;;;5027628;28;20376;-71
2020/12/27 09:50:01;;;;;;;21.67;15.00;;;15.30;51.30;;;;;;5037019;28;20029;-72
2020/12/27 09:52:27;;;;;;;19.45;13.05;;;15.40;51.50;;;;;;5035428;28;20017;-70
2020/12/27 09:54:52;;;;;;;22.05;14.13;;;15.70;51.70;;;;;;5039076;28;20394;-71
2020/12/27 09:57:23;;;;;;;21.65;14.60;;;16.00;51.00;;;;;;5039077;28;20033;-72
2020/12/27 09:59:51;;;;;;;27.63;16.67;;;15.90;50.30;;;;;;5039831;28;20032;-71
2020/12/27 10:02:18;;;;;;;44.88;24.48;;;15.90;50.60;;;;;;5037231;28;20033;-71
2020/12/27 10:04:45;;;;;;;35.70;22.95;;;16.20;50.50;;;;;;5037860;28;20525;-72
2020/12/27 10:07:11;;;;;;;45.60;26.98;;;16.50;50.30;;;;;;5047056;28;20059;-71
2020/12/27 10:09:37;;;;;;;52.40;27.83;;;16.60;49.50;;;;;;5047297;28;20119;-71
2020/12/27 10:12:04;;;;;;;46.05;25.13;;;16.50;48.70;;;;;;5039395;28;20049;-73
2020/12/27 10:14:31;;;;;;;41.70;23.85;;;16.50;48.70;;;;;;5041732;28;20446;-71
2020/12/27 10:16:59;;;;;;;40.38;22.75;;;16.60;49.10;;;;;;5038673;28;20037;-72
2020/12/27 10:19:25;;;;;;;42.85;23.33;;;16.90;49.60;;;;;;5045088;28;20083;-71
2020/12/27 10:21:51;;;;;;;35.65;21.23;;;17.10;48.30;;;;;;5045611;28;20041;-70
2020/12/27 10:24:17;;;;;;;43.88;23.85;;;17.30;48.70;;;;;;5042776;28;20040;-71
2020/12/27 10:26:48;;;;;;;49.05;26.02;;;17.20;46.80;;;;;;5041034;28;20030;-70
2020/12/27 10:29:13;;;;;;;38.05;22.38;;;16.90;47.70;;;;;;5047151;28;20041;-76
2020/12/27 10:31:39;;;;;;;34.70;21.23;;;16.90;47.40;;;;;;5036193;28;20048;-71
2020/12/27 10:34:05;;;;;;;42.97;24.40;;;16.60;46.70;;;;;;5039024;28;20510;-71
2020/12/27 10:36:31;;;;;;;53.97;27.13;;;16.60;47.40;;;;;;5040608;28;20490;-71
2020/12/27 10:38:57;;;;;;;51.80;29.17;;;16.60;48.00;;;;;;5043779;28;20024;-71
2020/12/27 10:41:22;;;;;;;57.83;29.42;;;16.90;47.90;;;;;;5042892;28;20040;-71
2020/12/27 10:43:54;;;;;;;51.85;26.38;;;17.00;47.30;;;;;;5041145;28;20030;-71
2020/12/27 10:46:20;;;;;;;53.90;27.13;;;16.80;47.00;;;;;;5043692;28;20030;-70
2020/12/27 10:48:47;;;;;;;54.00;27.77;;;16.70;46.70;;;;;;5043177;28;20032;-70
2020/12/27 10:51:13;;;;;;;58.55;30.38;;;16.70;46.90;;;;;;5059775;28;20025;-68
2020/12/27 10:53:39;;;;;;;56.47;29.50;;;16.80;47.10;;;;;;5060350;28;20031;-69
2020/12/27 10:56:06;;;;;;;59.35;29.67;;;16.90;47.00;;;;;;5055081;28;20112;-70
2020/12/27 10:58:32;;;;;;;56.05;28.92;;;17.00;46.80;;;;;;5041026;28;20078;-69
2020/12/27 11:00:58;;;;;;;56.80;31.65;;;17.10;46.80;;;;;;5053109;28;20024;-70
2020/12/27 11:03:23;;;;;;;53.78;28.80;;;17.00;45.80;;;;;;5049062;28;20053;-69
2020/12/27 11:05:49;;;;;;;64.80;31.48;;;16.80;46.90;;;;;;5043982;28;20367;-70
2020/12/27 11:08:15;;;;;;;50.03;25.83;;;16.90;46.30;;;;;;5039667;28;20026;-70
2020/12/27 11:10:43;;;;;;;51.92;25.92;;;16.70;46.20;;;;;;5045074;28;20033;-70
2020/12/27 11:13:09;;;;;;;51.45;25.77;;;16.70;46.00;;;;;;5032969;28;20104;-70
2020/12/27 11:15:35;;;;;;;48.22;23.98;;;16.50;45.90;;;;;;5033485;28;20483;-70
2020/12/27 11:18:02;;;;;;;35.80;20.83;;;16.50;46.70;;;;;;5032255;28;20025;-69
2020/12/27 11:20:28;;;;;;;34.15;18.27;;;16.50;46.70;;;;;;5034208;28;20028;-70
2020/12/27 11:22:55;;;;;;;22.10;13.50;;;16.50;46.40;;;;;;5033140;28;20416;-70
2020/12/27 11:25:21;;;;;;;18.95;10.77;;;16.50;46.50;;;;;;5046271;28;20018;-70
2020/12/27 11:27:47;;;;;;;12.60;7.95;;;16.50;46.40;;;;;;5033277;28;20033;-69
2020/12/27 11:30:13;;;;;;;11.90;7.65;;;16.60;46.80;;;;;;5032362;28;20033;-70
2020/12/27 11:32:38;;;;;;;10.38;7.35;;;16.80;46.00;;;;;;5049090;28;20032;-70
2020/12/27 11:35:07;;;;;;;14.50;7.38;;;16.70;45.50;;;;;;5051031;28;20021;-70
2020/12/27 11:38:21;;;;;;;11.20;6.47;;;16.50;46.00;;;;;;5051489;28;20419;-70
2020/12/27 11:41:19;;;;;;;10.40;5.75;;;16.70;46.00;;;;;;5033465;28;20120;-71
2020/12/27 11:47:08;;;;;;;12.10;7.68;;;16.40;45.10;;;;;;5015008;28;20153;-71
2020/12/27 11:50:09;;;;;;;8.27;5.85;;;15.50;44.90;;;;;;5050119;28;20441;-71
2020/12/27 11:52:43;;;;;;;8.65;5.57;;;14.90;45.60;;;;;;5046216;28;20079;-71
2020/12/27 11:55:41;;;;;;;10.05;6.72;;;14.60;46.90;;;;;;5052397;28;20027;-71
2020/12/27 11:58:55;;;;;;;;;;;;;;;;;;;;;
2020/12/27 12:01:36;;;;;;;9.05;6.40;;;14.40;47.50;;;;;;5051593;28;20055;-70
2020/12/27 12:04:06;;;;;;;11.05;6.55;;;14.20;47.90;;;;;;5050946;28;20098;-71
2020/12/27 12:06:43;;;;;;;10.13;6.85;;;14.10;48.30;;;;;;5050779;28;20036;-71
2020/12/27 12:09:25;;;;;;;;;;;;;;;;;;;;;
2020/12/27 12:12:36;;;;;;;9.73;6.38;;;13.90;49.40;;;;;;5039386;28;20390;-71
2020/12/27 12:15:12;;;;;;;9.43;6.38;;;14.00;49.40;;;;;;5055432;28;20075;-69
2020/12/27 12:17:53;;;;;;;;;;;;;;;;;;;;;
2020/12/27 12:23:16;;;;;;;10.75;6.75;;;13.70;49.00;;;;;;5042918;28;20139;-71
2020/12/27 12:25:46;;;;;;;25.20;14.73;;;13.30;49.40;;;;;;5042321;28;20479;-71
2020/12/27 12:28:17;;;;;;;26.83;15.57;;;12.80;49.90;;;;;;5053624;28;20057;-71
2020/12/27 12:30:49;;;;;;;25.67;13.65;;;12.30;50.50;;;;;;5054188;28;20045;-71
2020/12/27 12:33:15;;;;;;;49.35;19.50;;;12.00;51.80;;;;;;5054859;28;20439;-71
2020/12/27 12:36:30;;;;;;;;;;;;;;;;;;;;;
2020/12/27 12:39:24;;;;;;;97.15;38.60;;;11.40;53.50;;;;;;5056123;28;20035;-71
2020/12/27 12:41:56;;;;;;;111.88;45.60;;;11.10;54.50;;;;;;5051656;28;20041;-72
2020/12/27 12:44:25;;;;;;;123.60;52.92;;;11.00;55.30;;;;;;5056299;28;20025;-70
2020/12/27 12:46:59;;;;;;;135.70;54.95;;;10.60;54.30;;;;;;5058289;28;20048;-70
2020/12/27 12:49:56;;;;;;;81.47;34.50;;;10.00;55.20;;;;;;5060316;28;20025;-69
2020/12/27 12:52:22;;;;;;;70.00;32.50;;;9.60;56.20;;;;;;5067168;28;20044;-69
2020/12/27 12:55:13;;;;;;;47.38;23.55;;;9.10;56.80;;;;;;5065435;28;20029;-69
2020/12/27 12:57:46;;;;;;;44.63;21.20;;;8.70;57.50;;;;;;5062097;28;20021;-70